Time;durP1;ratioP1;P1;durP2;ratioP2;P2;SDS_P1;SDS_P2;PMS_P1;PMS_P2;Temp;Humidity;BMP_temperature;BMP_pressure;BME280_temperature;BME280_humidity;BME280_pressure;Samples;Min_cycle;Max_cycle;Signal;HPM_P1;HPM_P2
2022/10/24 00:00:19;;;;;;;7.90;2.70;;;;;;;;;;5113806;28;20073;-69
2022/10/24 00:02:49;;;;;;;11.30;2.90;;;;;;;;;;5113708;28;20479;-68
2022/10/24 00:05:19;;;;;;;7.70;3.20;;;;;;;;;;5090681;28;20075;-69
2022/10/24 00:07:50;;;;;;;8.88;3.42;;;;;;;;;;5090763;28;20055;-68
2022/10/24 00:10:20;;;;;;;10.93;3.42;;;;;;;;;;5053522;28;20678;-68
2022/10/24 00:12:50;;;;;;;9.02;2.95;;;;;;;;;;5070458;28;20057;-69
2022/10/24 00:15:20;;;;;;;7.25;2.72;;;;;;;;;;5037056;28;20056;-68
2022/10/24 00:17:50;;;;;;;5.35;2.20;;;;;;;;;;5070574;28;20064;-68
2022/10/24 00:20:20;;;;;;;8.40;2.42;;;;;;;;;;5037166;28;20057;-68
2022/10/24 00:22:50;;;;;;;4.47;2.15;;;;;;;;;;5036753;28;20079;-68
2022/10/24 00:25:20;;;;;;;5.43;2.55;;;;;;;;;;5070277;28;20048;-68
2022/10/24 00:27:50;;;;;;;8.63;2.50;;;;;;;;;;5004382;28;20075;-67
2022/10/24 00:30:20;;;;;;;4.15;2.05;;;;;;;;;;5036668;28;20056;-69
2022/10/24 00:32:51;;;;;;;4.50;2.20;;;;;;;;;;5019879;28;20044;-69
2022/10/24 00:35:22;;;;;;;5.13;2.08;;;;;;;;;;5069928;28;20053;-68
2022/10/24 00:37:52;;;;;;;4.05;2.08;;;;;;;;;;5013239;28;20049;-67
2022/10/24 00:40:22;;;;;;;4.28;1.90;;;;;;;;;;5013405;28;20493;-68
2022/10/24 00:42:52;;;;;;;5.20;1.80;;;;;;;;;;5031869;28;20614;-68
2022/10/24 00:45:50;;;;;;;5.68;2.05;;;;;;;;;;5020226;28;20067;-68
2022/10/24 00:48:31;;;;;;;7.30;2.08;;;;;;;;;;5023048;28;20049;-68
2022/10/24 00:51:04;;;;;;;3.95;1.70;;;;;;;;;;5029880;28;20037;-69
2022/10/24 00:53:35;;;;;;;;;;;;;;;;;;4997959;28;20057;-68
2022/10/24 00:56:08;;;;;;;3.80;1.77;;;;;;;;;;5029850;28;19921;-69
2022/10/24 00:58:40;;;;;;;5.88;1.80;;;;;;;;;;5029107;28;20061;-68
2022/10/24 01:01:11;;;;;;;4.80;2.03;;;;;;;;;;5029734;28;20056;-68
2022/10/24 01:03:42;;;;;;;4.13;1.92;;;;;;;;;;5013023;28;20633;-68
2022/10/24 01:06:15;;;;;;;7.25;2.10;;;;;;;;;;4980571;28;20441;-69
2022/10/24 01:09:08;;;;;;;6.78;1.85;;;;;;;;;;4964442;28;20056;-69
2022/10/24 01:12:11;;;;;;;9.70;1.95;;;;;;;;;;5029741;28;20064;-69
2022/10/24 01:15:04;;;;;;;6.63;2.05;;;;;;;;;;4987297;28;20496;-69
2022/10/24 01:17:52;;;;;;;5.30;1.73;;;;;;;;;;5069325;28;20048;-70
2022/10/24 01:20:39;;;;;;;4.45;1.80;;;;;;;;;;5036179;28;20056;-69
2022/10/24 01:23:27;;;;;;;5.55;1.67;;;;;;;;;;5069550;28;20548;-69
2022/10/24 01:26:18;;;;;;;4.55;1.77;;;;;;;;;;5103536;28;20078;-69
2022/10/24 01:29:33;;;;;;;4.70;1.80;;;;;;;;;;5112537;28;20048;-69
2022/10/24 01:32:13;;;;;;;4.10;1.88;;;;;;;;;;5069426;28;20048;-70
2022/10/24 01:34:56;;;;;;;5.25;2.20;;;;;;;;;;5069166;28;20049;-69
2022/10/24 01:37:33;;;;;;;4.85;1.98;;;;;;;;;;5069278;28;20408;-69
2022/10/24 01:40:20;;;;;;;7.20;1.73;;;;;;;;;;5069212;28;20429;-68
2022/10/24 01:42:52;;;;;;;8.27;1.92;;;;;;;;;;5068752;28;20056;-69
2022/10/24 01:45:33;;;;;;;4.85;1.92;;;;;;;;;;5069312;28;20048;-69
2022/10/24 01:48:09;;;;;;;4.57;1.73;;;;;;;;;;5052170;28;20044;-69
2022/10/24 01:50:45;;;;;;;5.10;1.95;;;;;;;;;;5069426;28;20057;-68
2022/10/24 01:53:15;;;;;;;6.57;2.00;;;;;;;;;;5068991;28;20040;-67
2022/10/24 01:55:49;;;;;;;5.00;2.15;;;;;;;;;;5068986;28;20512;-67
2022/10/24 01:58:20;;;;;;;7.00;2.42;;;;;;;;;;5069003;28;20036;-67
2022/10/24 02:00:53;;;;;;;7.13;1.80;;;;;;;;;;5019312;28;20084;-67
2022/10/24 02:03:33;;;;;;;6.28;2.35;;;;;;;;;;5099068;28;20067;-67
2022/10/24 02:06:29;;;;;;;5.40;2.10;;;;;;;;;;5112115;28;20051;-67
2022/10/24 02:09:06;;;;;;;7.28;1.85;;;;;;;;;;5076323;28;20403;-68
2022/10/24 02:11:37;;;;;;;9.23;2.28;;;;;;;;;;5092798;28;20052;-69
2022/10/24 02:14:29;;;;;;;4.95;2.20;;;;;;;;;;5072513;28;20051;-68
2022/10/24 02:17:01;;;;;;;5.47;2.15;;;;;;;;;;5073047;28;20057;-67
2022/10/24 02:19:32;;;;;;;10.45;2.92;;;;;;;;;;5072680;28;20409;-68
2022/10/24 02:22:08;;;;;;;6.05;2.20;;;;;;;;;;5072857;28;20064;-67
2022/10/24 02:25:00;;;;;;;7.47;2.20;;;;;;;;;;5023023;28;20060;-67
2022/10/24 02:27:46;;;;;;;6.50;2.15;;;;;;;;;;5039856;28;20425;-67
2022/10/24 02:30:21;;;;;;;5.45;2.35;;;;;;;;;;5039267;28;20582;-67
2022/10/24 02:32:57;;;;;;;5.90;2.40;;;;;;;;;;5041120;28;20056;-67
2022/10/24 02:35:31;;;;;;;10.07;2.13;;;;;;;;;;5072335;28;20145;-67
2022/10/24 02:38:12;;;;;;;5.95;2.53;;;;;;;;;;5072236;28;20062;-67
2022/10/24 02:40:43;;;;;;;9.00;2.60;;;;;;;;;;5072697;28;20427;-67
2022/10/24 02:43:17;;;;;;;5.05;2.33;;;;;;;;;;5086296;28;20063;-67
2022/10/24 02:45:49;;;;;;;4.93;2.00;;;;;;;;;;5092668;28;20158;-67
2022/10/24 02:48:27;;;;;;;4.97;2.50;;;;;;;;;;5092447;28;20522;-68
2022/10/24 02:50:57;;;;;;;8.48;2.78;;;;;;;;;;5079170;28;20044;-67
2022/10/24 02:53:28;;;;;;;5.47;2.42;;;;;;;;;;5115079;28;20052;-67
2022/10/24 02:55:59;;;;;;;5.45;2.42;;;;;;;;;;5115443;28;20044;-67
2022/10/24 02:58:29;;;;;;;6.85;2.40;;;;;;;;;;5115254;28;20035;-67
2022/10/24 03:00:59;;;;;;;8.35;2.45;;;;;;;;;;5115101;28;20054;-67
2022/10/24 03:03:29;;;;;;;6.22;2.90;;;;;;;;;;5114992;28;20047;-68
2022/10/24 03:06:00;;;;;;;8.00;2.20;;;;;;;;;;5115010;28;20050;-68
2022/10/24 03:08:30;;;;;;;5.55;2.50;;;;;;;;;;5115037;28;20051;-68
2022/10/24 03:11:00;;;;;;;8.15;2.70;;;;;;;;;;5114881;28;20047;-68
2022/10/24 03:13:29;;;;;;;5.47;2.00;;;;;;;;;;5114777;28;20039;-67
2022/10/24 03:16:00;;;;;;;4.32;2.22;;;;;;;;;;5114854;28;20044;-67
2022/10/24 03:18:31;;;;;;;4.80;1.92;;;;;;;;;;5112612;28;20499;-67
2022/10/24 03:21:01;;;;;;;6.35;2.45;;;;;;;;;;5114305;28;20051;-67
2022/10/24 03:23:31;;;;;;;7.32;2.38;;;;;;;;;;5061490;28;20543;-67
2022/10/24 03:26:00;;;;;;;8.73;2.63;;;;;;;;;;5078991;28;20055;-68
2022/10/24 03:28:30;;;;;;;6.47;2.03;;;;;;;;;;5061466;28;20051;-68
2022/10/24 03:31:01;;;;;;;6.65;2.30;;;;;;;;;;5071182;28;20060;-69
2022/10/24 03:33:31;;;;;;;6.80;2.38;;;;;;;;;;5021531;28;20060;-68
2022/10/24 03:36:01;;;;;;;6.05;2.30;;;;;;;;;;5037833;28;20056;-68
2022/10/24 03:38:31;;;;;;;7.35;2.60;;;;;;;;;;5037943;28;20059;-68
2022/10/24 03:41:02;;;;;;;5.75;2.25;;;;;;;;;;5071073;28;20056;-67
2022/10/24 03:43:32;;;;;;;8.43;2.78;;;;;;;;;;5006251;28;20052;-68
2022/10/24 03:46:02;;;;;;;6.28;2.35;;;;;;;;;;5011224;28;20100;-68
2022/10/24 03:48:32;;;;;;;4.88;2.30;;;;;;;;;;5011476;28;20624;-68
2022/10/24 03:51:02;;;;;;;7.88;2.05;;;;;;;;;;4978767;28;20050;-67
2022/10/24 03:53:31;;;;;;;6.03;2.70;;;;;;;;;;4946802;28;20505;-67
2022/10/24 03:56:01;;;;;;;7.05;2.45;;;;;;;;;;5011087;28;20061;-68
2022/10/24 03:58:31;;;;;;;7.68;2.65;;;;;;;;;;4991449;28;20402;-67
2022/10/24 04:01:02;;;;;;;4.15;2.10;;;;;;;;;;4975369;28;20055;-68
2022/10/24 04:03:32;;;;;;;6.88;2.25;;;;;;;;;;4975526;28;20102;-67
2022/10/24 04:06:04;;;;;;;9.45;2.90;;;;;;;;;;4959094;28;20410;-67
2022/10/24 04:08:34;;;;;;;4.60;2.05;;;;;;;;;;4962405;28;20061;-66
2022/10/24 04:11:05;;;;;;;6.60;2.33;;;;;;;;;;5030746;28;20057;-66
2022/10/24 04:13:35;;;;;;;5.32;2.03;;;;;;;;;;4997852;28;20049;-67
2022/10/24 04:16:05;;;;;;;10.35;2.28;;;;;;;;;;5014316;28;20057;-68
2022/10/24 04:18:36;;;;;;;7.15;2.20;;;;;;;;;;5030812;28;20060;-68
2022/10/24 04:21:06;;;;;;;6.07;2.13;;;;;;;;;;4997592;28;20421;-67
2022/10/24 04:23:39;;;;;;;6.82;2.40;;;;;;;;;;5058900;28;20105;-67
2022/10/24 04:26:12;;;;;;;7.47;2.50;;;;;;;;;;5090645;28;20048;-67
2022/10/24 04:28:45;;;;;;;5.00;2.13;;;;;;;;;;5090618;28;20044;-68
2022/10/24 04:31:16;;;;;;;6.97;2.45;;;;;;;;;;5090509;28;20051;-68
2022/10/24 04:33:51;;;;;;;5.05;2.42;;;;;;;;;;5073622;28;20056;-67
2022/10/24 04:36:21;;;;;;;6.85;2.38;;;;;;;;;;5073652;28;20526;-68
2022/10/24 04:38:51;;;;;;;6.68;2.17;;;;;;;;;;5040482;28;20064;-67
2022/10/24 04:41:22;;;;;;;4.78;2.33;;;;;;;;;;5074079;28;20048;-67
2022/10/24 04:43:53;;;;;;;4.80;2.00;;;;;;;;;;5040340;28;20397;-67
2022/10/24 04:46:23;;;;;;;4.13;1.90;;;;;;;;;;5039880;28;20514;-68
2022/10/24 04:48:53;;;;;;;7.68;2.45;;;;;;;;;;5073812;28;20047;-67
2022/10/24 04:51:23;;;;;;;5.30;2.60;;;;;;;;;;5056427;28;20048;-67
2022/10/24 04:53:54;;;;;;;6.25;2.22;;;;;;;;;;5090407;28;20063;-67
2022/10/24 04:56:25;;;;;;;6.07;2.00;;;;;;;;;;5090038;28;20052;-67
2022/10/24 04:58:56;;;;;;;5.88;1.83;;;;;;;;;;5049625;28;20093;-67
2022/10/24 05:01:26;;;;;;;10.20;2.17;;;;;;;;;;5000220;28;20160;-67
2022/10/24 05:03:56;;;;;;;4.53;2.10;;;;;;;;;;5033025;28;20053;-67
2022/10/24 05:06:26;;;;;;;8.73;2.22;;;;;;;;;;5053176;28;20061;-66
2022/10/24 05:08:56;;;;;;;4.90;2.03;;;;;;;;;;5090070;28;20504;-67
2022/10/24 05:11:26;;;;;;;7.90;2.13;;;;;;;;;;5089845;28;20059;-66
2022/10/24 05:13:56;;;;;;;8.75;2.80;;;;;;;;;;5072825;28;20412;-67
2022/10/24 05:16:26;;;;;;;6.50;2.08;;;;;;;;;;5089594;28;20063;-66
2022/10/24 05:18:56;;;;;;;6.32;2.28;;;;;;;;;;5089911;28;20048;-67
2022/10/24 05:21:26;;;;;;;7.95;2.30;;;;;;;;;;5072448;28;20059;-66
2022/10/24 05:23:56;;;;;;;9.10;2.67;;;;;;;;;;5049219;28;20052;-67
2022/10/24 05:26:26;;;;;;;8.00;2.25;;;;;;;;;;5032595;28;20056;-66
2022/10/24 05:28:55;;;;;;;8.38;2.35;;;;;;;;;;5049295;28;20416;-66
2022/10/24 05:31:26;;;;;;;5.95;2.38;;;;;;;;;;5049413;28;20052;-67
2022/10/24 05:33:57;;;;;;;4.82;2.38;;;;;;;;;;4993330;28;20061;-67
2022/10/24 05:36:27;;;;;;;7.18;2.05;;;;;;;;;;4994788;28;20524;-67
2022/10/24 05:38:58;;;;;;;5.85;2.30;;;;;;;;;;5048915;28;20052;-67
2022/10/24 05:41:28;;;;;;;5.22;2.25;;;;;;;;;;5049290;28;20059;-66
2022/10/24 05:43:58;;;;;;;7.28;2.35;;;;;;;;;;5048917;28;20068;-66
2022/10/24 05:46:28;;;;;;;7.78;2.20;;;;;;;;;;5049195;28;20057;-66
2022/10/24 05:48:58;;;;;;;4.85;2.13;;;;;;;;;;5032715;28;20056;-66
2022/10/24 05:51:28;;;;;;;7.88;1.90;;;;;;;;;;5049171;28;20544;-67
2022/10/24 05:53:58;;;;;;;4.45;2.15;;;;;;;;;;5049057;28;20044;-66
2022/10/24 05:56:28;;;;;;;5.20;2.22;;;;;;;;;;5048723;28;20075;-67
2022/10/24 05:58:58;;;;;;;7.60;1.95;;;;;;;;;;5048905;28;20083;-66
2022/10/24 06:01:28;;;;;;;5.28;2.15;;;;;;;;;;5067592;28;20503;-66
2022/10/24 06:03:59;;;;;;;5.65;2.00;;;;;;;;;;5089022;28;20063;-66
2022/10/24 06:06:28;;;;;;;5.10;2.65;;;;;;;;;;5055633;28;20059;-67
2022/10/24 06:08:58;;;;;;;5.22;2.03;;;;;;;;;;5039734;28;20052;-66
2022/10/24 06:11:28;;;;;;;5.63;2.20;;;;;;;;;;5091163;28;20063;-67
2022/10/24 06:13:59;;;;;;;7.68;2.28;;;;;;;;;;5112963;28;20062;-66
2022/10/24 06:16:29;;;;;;;4.68;2.05;;;;;;;;;;5121857;28;20423;-66
2022/10/24 06:19:00;;;;;;;6.30;2.10;;;;;;;;;;5058997;28;20043;-66
2022/10/24 06:21:30;;;;;;;9.68;2.05;;;;;;;;;;5076042;28;20395;-66
2022/10/24 06:24:00;;;;;;;5.30;2.10;;;;;;;;;;5111413;28;20047;-67
2022/10/24 06:26:30;;;;;;;6.65;2.30;;;;;;;;;;5075967;28;20062;-66
2022/10/24 06:29:00;;;;;;;10.07;2.22;;;;;;;;;;5111728;28;20571;-66
2022/10/24 06:31:29;;;;;;;5.38;2.08;;;;;;;;;;5038440;28;20055;-65
2022/10/24 06:33:59;;;;;;;9.20;2.40;;;;;;;;;;5089040;28;20056;-67
2022/10/24 06:36:30;;;;;;;5.38;2.00;;;;;;;;;;5088889;28;20526;-66
2022/10/24 06:39:00;;;;;;;5.30;2.20;;;;;;;;;;5038829;28;20053;-66
2022/10/24 06:41:30;;;;;;;5.35;2.10;;;;;;;;;;5089049;28;20040;-66
2022/10/24 06:44:01;;;;;;;4.10;1.83;;;;;;;;;;5018782;28;20447;-66
2022/10/24 06:46:36;;;;;;;10.82;2.00;;;;;;;;;;5068730;28;20099;-66
2022/10/24 06:49:07;;;;;;;5.15;2.22;;;;;;;;;;5068425;28;20056;-67
2022/10/24 06:51:36;;;;;;;6.38;2.58;;;;;;;;;;5035231;28;20539;-66
2022/10/24 06:54:07;;;;;;;5.30;2.33;;;;;;;;;;5068562;28;20060;-66
2022/10/24 06:56:38;;;;;;;7.55;2.72;;;;;;;;;;5036179;28;20531;-66
2022/10/24 06:59:11;;;;;;;8.43;2.10;;;;;;;;;;5054956;28;20071;-67
2022/10/24 07:01:42;;;;;;;3.78;1.83;;;;;;;;;;5071891;28;20088;-66
2022/10/24 07:04:12;;;;;;;7.22;2.30;;;;;;;;;;5031754;28;20049;-66
2022/10/24 07:06:43;;;;;;;7.15;2.28;;;;;;;;;;5032114;28;20080;-66
2022/10/24 07:09:13;;;;;;;7.13;2.10;;;;;;;;;;5019655;28;20056;-67
2022/10/24 07:11:44;;;;;;;6.45;2.38;;;;;;;;;;5039232;28;20060;-67
2022/10/24 07:14:14;;;;;;;5.28;2.33;;;;;;;;;;5021928;28;20520;-66
2022/10/24 07:16:44;;;;;;;9.13;2.38;;;;;;;;;;5014906;28;20053;-67
2022/10/24 07:19:14;;;;;;;7.63;2.05;;;;;;;;;;4998781;28;20493;-66
2022/10/24 07:21:44;;;;;;;4.57;2.22;;;;;;;;;;4976543;28;20049;-66
2022/10/24 07:24:13;;;;;;;4.40;1.63;;;;;;;;;;5051878;28;20049;-66
2022/10/24 07:26:43;;;;;;;6.03;1.90;;;;;;;;;;5001814;28;20064;-66
2022/10/24 07:29:13;;;;;;;7.53;2.40;;;;;;;;;;5018152;28;20512;-66
2022/10/24 07:31:43;;;;;;;6.00;1.90;;;;;;;;;;4985982;28;20061;-65
2022/10/24 07:34:13;;;;;;;6.25;1.92;;;;;;;;;;5051392;28;20068;-66
2022/10/24 07:36:43;;;;;;;4.00;1.88;;;;;;;;;;4985090;28;20736;-67
2022/10/24 07:39:13;;;;;;;6.25;2.10;;;;;;;;;;5001820;28;20056;-66
2022/10/24 07:41:43;;;;;;;3.78;1.80;;;;;;;;;;5060158;28;20051;-67
2022/10/24 07:44:13;;;;;;;6.28;2.42;;;;;;;;;;5037587;28;20041;-66
2022/10/24 07:46:42;;;;;;;6.25;2.05;;;;;;;;;;5071243;28;20048;-66
2022/10/24 07:49:12;;;;;;;5.90;1.83;;;;;;;;;;5071234;28;20048;-66
2022/10/24 07:51:42;;;;;;;7.80;2.10;;;;;;;;;;5070979;28;20044;-67
2022/10/24 07:54:12;;;;;;;7.10;2.22;;;;;;;;;;5044686;28;20484;-67
2022/10/24 07:56:42;;;;;;;4.63;1.60;;;;;;;;;;5077888;28;20055;-67
2022/10/24 07:59:11;;;;;;;5.78;1.80;;;;;;;;;;5114056;28;20043;-67
2022/10/24 08:02:02;;;;;;;2.95;1.60;;;;;;;;;;5112778;28;20032;-67
2022/10/24 08:04:32;;;;;;;4.88;1.70;;;;;;;;;;5078135;28;20062;-67
2022/10/24 08:07:02;;;;;;;3.67;1.65;;;;;;;;;;5090981;28;20052;-66
2022/10/24 08:09:36;;;;;;;6.85;2.00;;;;;;;;;;5091026;28;20052;-67
2022/10/24 08:12:06;;;;;;;5.78;1.80;;;;;;;;;;5040998;28;20040;-66
2022/10/24 08:14:38;;;;;;;7.32;2.13;;;;;;;;;;5090991;28;20479;-67
2022/10/24 08:17:09;;;;;;;6.93;1.55;;;;;;;;;;5074226;28;20160;-66
2022/10/24 08:19:40;;;;;;;4.75;2.00;;;;;;;;;;5090981;28;20048;-66
2022/10/24 08:22:12;;;;;;;4.22;1.70;;;;;;;;;;5024656;28;20507;-66
2022/10/24 08:24:44;;;;;;;6.70;2.30;;;;;;;;;;5090910;28;20447;-66
2022/10/24 08:27:15;;;;;;;6.57;1.80;;;;;;;;;;5040756;28;20064;-66
2022/10/24 08:29:44;;;;;;;4.43;1.90;;;;;;;;;;5057634;28;20052;-68
2022/10/24 08:32:14;;;;;;;8.60;1.80;;;;;;;;;;5073742;28;20058;-66
2022/10/24 08:34:44;;;;;;;5.53;1.90;;;;;;;;;;5090628;28;20495;-66
2022/10/24 08:37:14;;;;;;;4.40;2.13;;;;;;;;;;5090275;28;20044;-67
2022/10/24 08:39:44;;;;;;;6.28;2.03;;;;;;;;;;5073319;28;20504;-66
2022/10/24 08:42:16;;;;;;;10.75;2.10;;;;;;;;;;5090614;28;20044;-66
2022/10/24 08:44:46;;;;;;;4.65;1.50;;;;;;;;;;5055949;28;20040;-66
2022/10/24 08:47:45;;;;;;;4.55;1.60;;;;;;;;;;5053306;28;20052;-66
2022/10/24 08:50:33;;;;;;;6.80;2.00;;;;;;;;;;5029739;28;20125;-67
2022/10/24 08:53:26;;;;;;;3.63;1.88;;;;;;;;;;4980526;28;20068;-67
2022/10/24 08:55:59;;;;;;;6.20;2.17;;;;;;;;;;5029820;28;20502;-66
2022/10/24 08:58:37;;;;;;;6.38;2.30;;;;;;;;;;5029980;28;20468;-66
2022/10/24 09:01:20;;;;;;;4.00;1.75;;;;;;;;;;4980537;28;20052;-67
2022/10/24 09:03:52;;;;;;;5.13;1.60;;;;;;;;;;5009613;28;20050;-66
2022/10/24 09:06:29;;;;;;;4.57;1.83;;;;;;;;;;4961411;28;20065;-67
2022/10/24 09:09:16;;;;;;;8.25;2.00;;;;;;;;;;4978662;28;20069;-67
2022/10/24 09:12:16;;;;;;;3.67;1.90;;;;;;;;;;4978218;28;20049;-66
2022/10/24 09:14:52;;;;;;;6.30;1.85;;;;;;;;;;4904001;29;20093;-66
2022/10/24 09:17:35;;;;;;;4.28;1.90;;;;;;;;;;4919438;28;20051;-67
2022/10/24 09:20:24;;;;;;;6.30;2.53;;;;;;;;;;4951155;28;20059;-67
2022/10/24 09:23:03;;;;;;;7.13;2.22;;;;;;;;;;4964334;28;20058;-67
2022/10/24 09:25:35;;;;;;;6.55;2.10;;;;;;;;;;4983335;28;20062;-67
2022/10/24 09:28:07;;;;;;;6.93;2.30;;;;;;;;;;4989510;28;20070;-67
2022/10/24 09:30:37;;;;;;;7.65;2.10;;;;;;;;;;5029472;28;20053;-67
2022/10/24 09:33:41;;;;;;;5.10;2.00;;;;;;;;;;4996145;28;20049;-67
2022/10/24 09:36:15;;;;;;;5.88;1.83;;;;;;;;;;4958537;28;20051;-67
2022/10/24 09:38:50;;;;;;;5.70;1.80;;;;;;;;;;4970448;28;20162;-67
2022/10/24 09:41:29;;;;;;;11.10;2.70;;;;;;;;;;4978306;28;20066;-67
2022/10/24 09:44:01;;;;;;;4.32;2.08;;;;;;;;;;4973291;28;20061;-67
2022/10/24 09:46:44;;;;;;;5.13;1.80;;;;;;;;;;4974070;28;20526;-66
2022/10/24 09:49:24;;;;;;;4.18;2.03;;;;;;;;;;4989746;28;20046;-67
2022/10/24 09:52:18;;;;;;;4.18;2.22;;;;;;;;;;5003535;28;20525;-67
2022/10/24 09:55:04;;;;;;;5.38;1.88;;;;;;;;;;4980186;28;20064;-66
2022/10/24 09:57:39;;;;;;;7.88;2.22;;;;;;;;;;5029003;28;20049;-67
2022/10/24 10:00:32;;;;;;;5.40;2.53;;;;;;;;;;4980086;28;20060;-66
2022/10/24 10:03:21;;;;;;;8.07;2.92;;;;;;;;;;5028928;28;20080;-66
2022/10/24 10:05:54;;;;;;;4.63;2.47;;;;;;;;;;4996358;28;20096;-67
2022/10/24 10:08:30;;;;;;;6.03;2.50;;;;;;;;;;5029112;28;20050;-66
2022/10/24 10:11:01;;;;;;;9.02;2.45;;;;;;;;;;5028941;28;20403;-67
2022/10/24 10:13:52;;;;;;;4.20;1.98;;;;;;;;;;5085971;28;20060;-67
2022/10/24 10:16:29;;;;;;;4.53;2.15;;;;;;;;;;5109074;28;20044;-67
2022/10/24 10:19:18;;;;;;;4.53;2.40;;;;;;;;;;5109416;28;20052;-67
2022/10/24 10:21:56;;;;;;;4.90;2.10;;;;;;;;;;5075596;28;20039;-67
2022/10/24 10:24:37;;;;;;;;;;;;;;;;;;5093035;28;20055;-67
2022/10/24 10:27:30;;;;;;;7.47;2.60;;;;;;;;;;5076109;28;19920;-67
2022/10/24 10:30:14;;;;;;;6.97;2.55;;;;;;;;;;5109066;28;20058;-62
2022/10/24 10:33:22;;;;;;;5.82;2.33;;;;;;;;;;5112290;28;20052;-64
2022/10/24 10:36:31;;;;;;;5.00;2.40;;;;;;;;;;5019188;28;20076;-64
2022/10/24 10:39:25;;;;;;;5.45;2.00;;;;;;;;;;5008647;28;20058;-68
2022/10/24 10:42:11;;;;;;;6.15;1.98;;;;;;;;;;4940979;29;20055;-70
2022/10/24 10:45:12;;;;;;;5.75;2.00;;;;;;;;;;4930976;29;20594;-63
2022/10/24 10:48:28;;;;;;;3.95;1.98;;;;;;;;;;4940143;29;20063;-65
2022/10/24 10:51:33;;;;;;;4.75;2.30;;;;;;;;;;4911798;29;20041;-62
2022/10/24 10:54:22;;;;;;;7.40;3.70;;;;;;;;;;4886993;29;20060;-64
2022/10/24 10:57:14;;;;;;;6.05;3.10;;;;;;;;;;4885764;29;20045;-62
2022/10/24 10:59:58;;;;;;;6.30;2.10;;;;;;;;;;4858973;29;20064;-62
2022/10/24 11:02:40;;;;;;;5.40;2.28;;;;;;;;;;4876103;29;20072;-64
2022/10/24 11:05:56;;;;;;;5.18;2.53;;;;;;;;;;4872572;29;20065;-64
2022/10/24 11:08:56;;;;;;;8.30;2.97;;;;;;;;;;4840821;29;20062;-63
2022/10/24 11:11:51;;;;;;;4.68;2.28;;;;;;;;;;4850540;29;20072;-64
2022/10/24 11:14:59;;;;;;;5.10;2.40;;;;;;;;;;4895850;29;20051;-65
2022/10/24 11:23:40;;;;;;;6.05;2.10;;;;;;;;;;5099598;27;20433;-64
2022/10/24 11:26:30;;;;;;;5.85;2.47;;;;;;;;;;5079604;28;20043;-63
2022/10/24 11:29:29;;;;;;;6.35;2.20;;;;;;;;;;5067374;28;20051;-64
2022/10/24 12:28:25;;;;;;;7.95;2.03;;;;;;;;;;5095006;27;20493;-70
2022/10/24 12:31:14;;;;;;;6.03;2.70;;;;;;;;;;5065496;28;20048;-72
2022/10/24 12:34:27;;;;;;;5.25;2.40;;;;;;;;;;5050415;28;20637;-70
2022/10/24 12:37:19;;;;;;;4.20;1.88;;;;;;;;;;5027078;28;20497;-71
2022/10/24 12:39:50;;;;;;;5.85;1.92;;;;;;;;;;5027213;28;20056;-70
2022/10/24 12:42:26;;;;;;;6.63;2.03;;;;;;;;;;5027210;28;20084;-74
2022/10/24 12:45:04;;;;;;;6.43;2.45;;;;;;;;;;4977983;28;20062;-71
2022/10/24 12:47:40;;;;;;;4.85;2.17;;;;;;;;;;4977842;28;20061;-75
2022/10/24 12:50:22;;;;;;;4.80;2.78;;;;;;;;;;4978113;28;20394;-73
2022/10/24 12:53:01;;;;;;;5.10;1.70;;;;;;;;;;5027138;28;20050;-73
2022/10/24 12:55:37;;;;;;;3.13;1.63;;;;;;;;;;4977842;28;20061;-77
2022/10/24 12:58:34;;;;;;;4.32;1.83;;;;;;;;;;5026924;28;20058;-75
2022/10/24 13:01:10;;;;;;;6.28;1.90;;;;;;;;;;4994576;28;20065;-77
2022/10/24 13:04:17;;;;;;;6.00;1.67;;;;;;;;;;4960773;28;20417;-77
2022/10/24 13:07:01;;;;;;;4.22;2.00;;;;;;;;;;5006335;28;20045;-75
2022/10/24 13:09:34;;;;;;;;;;;;;;;;;;5007229;28;20054;-76
2022/10/24 13:12:12;;;;;;;4.28;1.40;;;;;;;;;;5006680;28;19921;-76
2022/10/24 13:14:58;;;;;;;2.83;1.38;;;;;;;;;;5004848;28;20540;-75
2022/10/24 13:17:37;;;;;;;4.57;1.42;;;;;;;;;;5035423;28;20396;-76
2022/10/24 13:20:22;;;;;;;5.55;1.30;;;;;;;;;;5045837;28;20048;-74
2022/10/24 13:23:06;;;;;;;3.63;1.33;;;;;;;;;;5045884;28;20042;-76
2022/10/24 13:25:39;;;;;;;9.75;6.22;;;;;;;;;;5033768;28;20456;-72
2022/10/24 13:28:23;;;;;;;5.60;1.80;;;;;;;;;;5023526;28;20440;-76
2022/10/24 13:30:54;;;;;;;8.02;1.90;;;;;;;;;;5025545;28;20068;-77
2022/10/24 13:33:35;;;;;;;3.72;1.38;;;;;;;;;;5009051;28;20062;-75
2022/10/24 13:36:16;;;;;;;5.05;2.03;;;;;;;;;;5024442;28;20076;-76
2022/10/24 13:38:49;;;;;;;5.38;2.97;;;;;;;;;;5000284;28;20050;-77
2022/10/24 13:42:00;;;;;;;4.57;1.67;;;;;;;;;;4987515;28;20519;-76
2022/10/24 13:44:47;;;;;;;1.90;1.17;;;;;;;;;;5005132;28;20046;-76
2022/10/24 13:47:43;;;;;;;2.63;0.90;;;;;;;;;;4934463;29;20511;-77
2022/10/24 13:50:27;;;;;;;1.42;1.13;;;;;;;;;;4897401;29;20069;-77
2022/10/24 13:53:20;;;;;;;2.05;0.85;;;;;;;;;;4866045;29;20060;-77
2022/10/24 13:56:04;;;;;;;3.55;0.90;;;;;;;;;;4846856;29;20053;-76
2022/10/24 13:58:39;;;;;;;1.30;0.80;;;;;;;;;;4858843;29;20053;-78
2022/10/24 14:01:24;;;;;;;3.63;1.10;;;;;;;;;;4864178;29;20052;-76
2022/10/24 14:03:56;;;;;;;1.20;0.77;;;;;;;;;;4881866;29;20052;-75
2022/10/24 14:06:32;;;;;;;1.15;0.70;;;;;;;;;;4888121;29;20056;-75
2022/10/24 14:09:09;;;;;;;2.53;0.80;;;;;;;;;;4886235;29;20052;-73
2022/10/24 14:11:43;;;;;;;2.63;1.00;;;;;;;;;;4890653;29;20057;-73
2022/10/24 14:14:28;;;;;;;2.92;1.23;;;;;;;;;;4893717;29;20146;-77
2022/10/24 14:17:25;;;;;;;2.35;1.15;;;;;;;;;;4944674;29;20052;-75
2022/10/24 14:20:44;;;;;;;3.03;1.73;;;;;;;;;;4871593;29;20048;-75
2022/10/24 14:23:29;;;;;;;1.98;1.05;;;;;;;;;;4865486;29;20067;-77
2022/10/24 14:26:07;;;;;;;3.17;1.00;;;;;;;;;;4901275;29;20055;-74
2022/10/24 14:28:45;;;;;;;4.63;1.20;;;;;;;;;;4921453;29;20450;-75
2022/10/24 14:31:26;;;;;;;1.80;0.93;;;;;;;;;;4919070;29;20063;-76
2022/10/24 14:33:57;;;;;;;3.75;2.08;;;;;;;;;;4945065;29;20506;-72
2022/10/24 14:36:29;;;;;;;3.10;1.20;;;;;;;;;;4918044;29;20060;-75
2022/10/24 14:39:00;;;;;;;94.95;58.92;;;;;;;;;;4934331;29;20055;-74
2022/10/24 14:41:41;;;;;;;5.93;3.15;;;;;;;;;;4934187;29;20060;-76
2022/10/24 14:44:14;;;;;;;3.05;1.73;;;;;;;;;;4915205;29;20064;-72
2022/10/24 14:47:00;;;;;;;2.13;0.90;;;;;;;;;;4914997;29;20060;-74
2022/10/24 14:49:35;;;;;;;4.28;1.25;;;;;;;;;;4933009;29;20051;-72
2022/10/24 14:52:10;;;;;;;4.35;1.80;;;;;;;;;;4886463;29;20056;-73
2022/10/24 14:55:04;;;;;;;2.28;1.38;;;;;;;;;;4918276;29;20451;-74
2022/10/24 14:57:37;;;;;;;6.38;2.40;;;;;;;;;;4922786;29;20067;-73
2022/10/24 15:00:20;;;;;;;4.28;1.00;;;;;;;;;;4952321;28;20411;-74
2022/10/24 15:02:53;;;;;;;4.00;1.08;;;;;;;;;;4956109;28;20419;-75
2022/10/24 15:05:27;;;;;;;4.63;1.40;;;;;;;;;;4988210;28;20058;-74
2022/10/24 15:07:58;;;;;;;3.70;2.03;;;;;;;;;;4924148;28;20084;-74
2022/10/24 15:11:11;;;;;;;2.42;1.20;;;;;;;;;;4971969;28;20038;-74
2022/10/24 15:13:50;;;;;;;8.15;3.65;;;;;;;;;;4971789;28;20054;-74
2022/10/24 15:16:38;;;;;;;1.83;1.08;;;;;;;;;;4971905;28;20058;-75
2022/10/24 15:19:16;;;;;;;4.78;1.88;;;;;;;;;;4939604;28;20406;-74
2022/10/24 15:21:47;;;;;;;;;;;;;;;;;;4991622;28;20057;-75
2022/10/24 15:24:25;;;;;;;2.58;1.40;;;;;;;;;;5010844;28;20407;-75
2022/10/24 15:27:23;;;;;;;1.83;0.90;;;;;;;;;;5013541;28;20057;-73
2022/10/24 15:29:54;;;;;;;3.63;1.25;;;;;;;;;;5014252;28;20417;-73
2022/10/24 15:32:25;;;;;;;1.80;1.00;;;;;;;;;;5032689;28;20053;-75
2022/10/24 15:34:55;;;;;;;3.53;1.23;;;;;;;;;;5013941;28;20068;-74
2022/10/24 15:37:25;;;;;;;3.00;0.93;;;;;;;;;;5030743;28;20057;-73
2022/10/24 15:39:55;;;;;;;2.78;1.30;;;;;;;;;;5032831;28;20420;-75
2022/10/24 15:42:25;;;;;;;1.55;0.85;;;;;;;;;;5032563;28;20528;-72
2022/10/24 15:44:55;;;;;;;1.80;0.98;;;;;;;;;;5029766;28;20049;-73
2022/10/24 15:47:25;;;;;;;3.45;1.20;;;;;;;;;;5030095;28;20088;-74
2022/10/24 15:49:55;;;;;;;2.88;1.05;;;;;;;;;;4981109;28;20053;-74
2022/10/24 15:52:25;;;;;;;3.78;1.00;;;;;;;;;;5030059;28;20064;-75
2022/10/24 15:54:55;;;;;;;2.05;0.98;;;;;;;;;;5046456;28;20057;-76
2022/10/24 15:57:25;;;;;;;2.20;0.90;;;;;;;;;;5029786;28;20049;-74
2022/10/24 15:59:56;;;;;;;1.77;0.90;;;;;;;;;;5013361;28;20060;-75
2022/10/24 16:02:26;;;;;;;3.40;1.20;;;;;;;;;;5013117;28;20049;-74
2022/10/24 16:04:57;;;;;;;2.28;1.30;;;;;;;;;;5029916;28;20054;-72
2022/10/24 16:07:26;;;;;;;1.75;1.02;;;;;;;;;;5029731;28;20551;-72
2022/10/24 16:09:56;;;;;;;4.38;1.20;;;;;;;;;;5029836;28;20091;-73
2022/10/24 16:12:26;;;;;;;3.08;1.25;;;;;;;;;;5013178;28;20100;-75
2022/10/24 16:14:56;;;;;;;3.15;1.17;;;;;;;;;;5013197;28;20061;-74
2022/10/24 16:17:26;;;;;;;3.08;1.20;;;;;;;;;;5029833;28;20057;-73
2022/10/24 16:19:56;;;;;;;2.67;1.83;;;;;;;;;;5029763;28;20432;-74
2022/10/24 16:22:26;;;;;;;2.05;0.90;;;;;;;;;;5030559;28;20061;-71
2022/10/24 16:24:56;;;;;;;2.47;1.20;;;;;;;;;;5046565;28;20042;-76
2022/10/24 16:27:26;;;;;;;2.03;0.90;;;;;;;;;;5031842;28;20053;-72
2022/10/24 16:29:55;;;;;;;4.57;1.45;;;;;;;;;;5031817;28;20402;-74
2022/10/24 16:32:26;;;;;;;3.22;0.88;;;;;;;;;;5049137;28;20052;-73
2022/10/24 16:34:56;;;;;;;1.95;1.00;;;;;;;;;;5049742;28;20053;-73
2022/10/24 16:37:26;;;;;;;4.70;1.25;;;;;;;;;;5016217;28;20539;-73
2022/10/24 16:39:56;;;;;;;1.38;0.82;;;;;;;;;;5049464;28;20053;-73